Time;durP1;ratioP1;P1;durP2;ratioP2;P2;SDS_P1;SDS_P2;PMS_P1;PMS_P2;Temp;Humidity;BMP_temperature;BMP_pressure;BME280_temperature;BME280_humidity;BME280_pressure;Samples;Min_cycle;Max_cycle;Signal;HPM_P1;HPM_P2
2023/10/19 00:00:55;;;;;;;3.25;1.67;;;23.10;55.70;;;;;;5033086;27;88551;-86
2023/10/19 00:03:23;;;;;;;3.45;1.98;;;23.10;55.80;;;;;;5033870;27;89212;-87
2023/10/19 00:05:49;;;;;;;3.67;1.98;;;23.10;55.80;;;;;;5032568;27;88897;-87
2023/10/19 00:08:20;;;;;;;4.18;2.10;;;23.10;55.80;;;;;;5030798;27;88720;-87
2023/10/19 00:10:54;;;;;;;2.25;1.65;;;23.10;55.70;;;;;;5045750;27;87460;-86
2023/10/19 00:13:20;;;;;;;2.60;1.42;;;23.10;55.80;;;;;;5045163;27;88961;-86
2023/10/19 00:15:51;;;;;;;2.85;1.92;;;23.00;55.80;;;;;;5028042;27;90803;-87
2023/10/19 00:23:34;;;;;;;3.10;1.88;;;23.00;55.80;;;;;;5030263;27;88158;-87
2023/10/19 00:26:10;;;;;;;3.72;1.95;;;23.00;56.00;;;;;;5028637;27;90223;-87
2023/10/19 00:28:38;;;;;;;2.95;1.67;;;23.00;55.90;;;;;;5029820;27;87691;-87
2023/10/19 00:31:08;;;;;;;2.63;1.42;;;23.00;55.90;;;;;;5027454;27;89510;-86
2023/10/19 00:33:39;;;;;;;2.95;1.77;;;23.00;56.10;;;;;;5028625;27;90142;-87
2023/10/19 00:36:12;;;;;;;2.67;2.05;;;23.00;56.00;;;;;;5030554;27;89780;-86
2023/10/19 00:38:39;;;;;;;2.83;1.52;;;23.00;56.10;;;;;;5033529;27;87471;-87
2023/10/19 00:43:42;;;;;;;2.55;1.40;;;23.00;55.90;;;;;;5031262;27;90709;-86
2023/10/19 00:46:32;;;;;;;2.20;1.60;;;22.90;56.00;;;;;;5031281;27;87947;-87
2023/10/19 00:49:02;;;;;;;2.25;1.55;;;22.90;56.00;;;;;;5028868;27;87476;-87
2023/10/19 00:54:08;;;;;;;2.35;1.45;;;22.90;56.00;;;;;;5031329;27;87917;-88
2023/10/19 00:56:35;;;;;;;2.08;1.55;;;22.90;56.00;;;;;;5030576;27;88008;-87
2023/10/19 01:01:47;;;;;;;3.43;1.77;;;22.90;56.10;;;;;;5028209;27;87923;-86
2023/10/19 01:04:15;;;;;;;3.95;1.73;;;22.90;56.10;;;;;;5029353;27;90262;-86
2023/10/19 01:06:44;;;;;;;2.13;1.27;;;22.90;56.00;;;;;;5031294;27;88340;-87
2023/10/19 01:09:14;;;;;;;2.67;1.63;;;22.90;56.10;;;;;;5030108;27;87721;-87
2023/10/19 01:11:45;;;;;;;1.90;1.42;;;22.90;56.10;;;;;;5027776;27;88042;-85
2023/10/19 01:14:27;;;;;;;3.00;1.60;;;22.90;56.10;;;;;;5027763;27;92065;-87
2023/10/19 01:16:56;;;;;;;1.70;1.30;;;22.80;56.10;;;;;;5032834;27;87859;-86
2023/10/19 01:19:23;;;;;;;3.45;2.03;;;22.80;56.10;;;;;;5032574;27;87887;-87
2023/10/19 01:22:01;;;;;;;2.92;1.58;;;22.80;56.20;;;;;;5029397;27;88224;-86
2023/10/19 01:24:42;;;;;;;3.03;1.70;;;22.80;56.20;;;;;;5031997;27;89397;-87
2023/10/19 01:27:11;;;;;;;2.20;1.27;;;22.80;56.10;;;;;;5031299;27;93155;-86
2023/10/19 01:29:40;;;;;;;1.83;1.50;;;22.80;56.10;;;;;;5028572;27;87409;-86
2023/10/19 01:32:11;;;;;;;2.42;1.60;;;22.80;56.10;;;;;;5029758;27;89091;-87
2023/10/19 01:34:37;;;;;;;4.60;1.80;;;22.80;56.20;;;;;;5032495;27;88596;-86
2023/10/19 01:37:04;;;;;;;2.30;1.30;;;22.80;56.00;;;;;;5028715;27;90544;-86
2023/10/19 01:39:36;;;;;;;1.58;1.35;;;22.80;56.20;;;;;;5028191;27;87700;-86
2023/10/19 01:42:07;;;;;;;2.00;1.35;;;22.80;56.20;;;;;;5030160;27;88701;-87
2023/10/19 01:44:35;;;;;;;2.30;1.60;;;22.70;56.00;;;;;;5027650;27;90623;-87
2023/10/19 01:47:01;;;;;;;3.67;1.83;;;22.70;56.10;;;;;;5028093;27;89472;-87
2023/10/19 01:49:30;;;;;;;2.00;1.60;;;22.70;56.20;;;;;;5027850;27;88505;-86
2023/10/19 01:51:56;;;;;;;2.10;1.57;;;22.70;56.10;;;;;;5028621;27;87748;-87
2023/10/19 01:54:24;;;;;;;2.25;1.60;;;22.70;56.10;;;;;;5030872;27;88445;-87
2023/10/19 01:57:00;;;;;;;3.23;1.73;;;22.70;56.10;;;;;;5027249;27;88287;-86
2023/10/19 01:59:29;;;;;;;3.83;2.13;;;22.70;56.20;;;;;;5023536;27;87414;-87
2023/10/19 02:01:56;;;;;;;2.50;1.63;;;22.70;56.20;;;;;;5029450;27;88322;-87
2023/10/19 02:04:21;;;;;;;3.20;1.73;;;22.70;56.30;;;;;;5026071;27;90251;-86
2023/10/19 02:06:48;;;;;;;4.68;1.40;;;22.70;56.10;;;;;;5028995;27;90893;-86
2023/10/19 02:11:45;;;;;;;2.55;1.48;;;22.70;56.20;;;;;;5027603;27;87060;-85
2023/10/19 02:14:14;;;;;;;4.82;1.80;;;22.70;56.20;;;;;;5025874;27;91128;-86
2023/10/19 02:16:51;;;;;;;1.80;1.20;;;22.70;56.20;;;;;;5026876;27;87695;-87
2023/10/19 02:19:17;;;;;;;2.30;1.90;;;22.60;56.20;;;;;;5024155;27;87518;-86
2023/10/19 02:21:43;;;;;;;2.28;1.73;;;22.60;56.20;;;;;;5028435;27;88000;-86
2023/10/19 02:24:19;;;;;;;2.05;1.48;;;22.60;56.10;;;;;;5025332;27;87896;-86
2023/10/19 02:26:51;;;;;;;2.50;1.13;;;22.60;56.10;;;;;;5014547;27;88635;-85
2023/10/19 02:29:17;;;;;;;2.17;1.58;;;22.60;56.20;;;;;;5023967;27;87809;-86
2023/10/19 02:31:43;;;;;;;2.28;1.48;;;22.70;56.30;;;;;;5026183;27;86954;-86
2023/10/19 02:34:10;;;;;;;1.92;1.45;;;22.60;56.10;;;;;;5023632;27;90026;-86
2023/10/19 02:36:37;;;;;;;1.73;1.20;;;22.60;56.10;;;;;;5024263;27;88428;-86
2023/10/19 02:39:11;;;;;;;1.75;1.20;;;22.60;56.10;;;;;;5025298;27;88860;-87
2023/10/19 02:41:40;;;;;;;1.65;1.30;;;22.60;56.10;;;;;;5025402;27;88296;-85
2023/10/19 02:46:43;;;;;;;2.35;1.45;;;22.60;56.30;;;;;;5026937;27;87754;-86
2023/10/19 02:49:13;;;;;;;1.73;1.35;;;22.60;56.20;;;;;;5024339;27;87602;-86
2023/10/19 02:51:40;;;;;;;1.63;1.30;;;22.60;56.30;;;;;;5025288;27;87980;-86
2023/10/19 02:54:09;;;;;;;2.03;1.40;;;22.60;56.30;;;;;;5026509;27;88471;-86
2023/10/19 02:56:38;;;;;;;2.10;1.30;;;22.60;56.30;;;;;;5027502;27;89517;-86
2023/10/19 02:59:05;;;;;;;2.42;1.27;;;22.60;56.40;;;;;;5026049;27;87687;-87
2023/10/19 03:01:34;;;;;;;1.23;1.13;;;22.60;56.40;;;;;;5024209;27;87982;-86
2023/10/19 03:04:00;;;;;;;2.67;1.40;;;22.60;56.40;;;;;;5025454;27;91312;-86
2023/10/19 03:06:32;;;;;;;1.52;1.23;;;22.50;56.50;;;;;;5029082;27;91007;-86
2023/10/19 03:09:01;;;;;;;2.03;1.45;;;22.50;56.40;;;;;;5045240;27;87257;-86
2023/10/19 03:11:30;;;;;;;2.67;1.50;;;22.50;56.40;;;;;;5026844;27;87747;-87
2023/10/19 03:13:57;;;;;;;1.63;1.38;;;22.50;56.30;;;;;;5028402;27;88020;-86
2023/10/19 03:16:23;;;;;;;2.03;1.40;;;22.50;56.30;;;;;;5025119;27;88496;-86
2023/10/19 03:18:54;;;;;;;2.75;1.38;;;22.50;56.40;;;;;;5025417;27;86900;-86
2023/10/19 03:21:26;;;;;;;2.25;1.67;;;22.50;56.40;;;;;;5028552;27;88063;-86
2023/10/19 03:24:23;;;;;;;1.80;1.35;;;22.50;56.30;;;;;;5026826;27;93657;-86
2023/10/19 03:26:49;;;;;;;1.70;1.30;;;22.50;56.40;;;;;;5024183;27;91865;-86
2023/10/19 03:29:22;;;;;;;1.67;1.27;;;22.50;56.20;;;;;;5027044;27;89254;-86
2023/10/19 03:31:48;;;;;;;1.98;1.20;;;22.50;56.20;;;;;;5027538;27;87592;-85
2023/10/19 03:34:17;;;;;;;1.50;1.40;;;22.50;56.30;;;;;;5027558;27;89879;-86
2023/10/19 03:36:43;;;;;;;1.75;1.05;;;22.50;56.40;;;;;;5026821;27;89613;-86
2023/10/19 03:39:12;;;;;;;1.98;1.40;;;22.50;56.50;;;;;;5029245;27;87435;-86
2023/10/19 03:41:42;;;;;;;3.00;1.73;;;22.50;56.50;;;;;;5028058;27;87620;-87
2023/10/19 03:44:14;;;;;;;1.58;1.40;;;22.40;56.30;;;;;;5030514;27;88072;-86
2023/10/19 03:46:52;;;;;;;1.40;1.10;;;22.40;56.30;;;;;;5028498;27;87596;-87
2023/10/19 03:49:21;;;;;;;1.70;1.50;;;22.40;56.60;;;;;;5027560;27;88072;-87
2023/10/19 03:54:49;;;;;;;1.33;1.00;;;22.40;56.50;;;;;;4965220;28;89345;-86
2023/10/19 03:57:19;;;;;;;1.65;1.17;;;22.40;56.50;;;;;;4951124;28;91160;-86
2023/10/19 03:59:50;;;;;;;1.77;1.30;;;22.40;56.50;;;;;;4966227;28;87771;-86
2023/10/19 04:02:16;;;;;;;2.38;1.52;;;22.40;56.40;;;;;;4962554;27;89153;-86
2023/10/19 04:04:48;;;;;;;2.40;1.38;;;22.40;56.40;;;;;;5030873;27;87729;-87
2023/10/19 04:07:21;;;;;;;2.00;1.40;;;22.40;56.40;;;;;;5029332;27;89078;-86
2023/10/19 04:10:38;;;;;;;2.45;1.20;;;22.40;56.40;;;;;;5028133;27;87399;-87
2023/10/19 04:12:44;;;;;;;1.30;1.13;;;22.40;56.40;;;;;;5021644;27;87258;-87
2023/10/19 04:15:16;;;;;;;1.85;1.48;;;22.40;56.50;;;;;;5028900;27;89166;-87
2023/10/19 04:17:45;;;;;;;1.70;1.30;;;22.40;56.60;;;;;;5044937;27;89616;-86
2023/10/19 04:20:28;;;;;;;2.13;1.42;;;22.40;56.50;;;;;;5029901;27;88642;-86
2023/10/19 04:22:54;;;;;;;2.45;1.30;;;22.40;56.60;;;;;;5031370;27;87570;-86
2023/10/19 04:25:20;;;;;;;1.30;1.00;;;22.40;56.40;;;;;;5028069;27;90145;-87
2023/10/19 04:27:47;;;;;;;2.03;1.40;;;22.40;56.50;;;;;;5029210;27;87890;-87
2023/10/19 04:30:26;;;;;;;1.85;1.58;;;22.40;56.60;;;;;;5030282;27;88154;-87
2023/10/19 04:32:52;;;;;;;;;;;22.40;56.50;;;;;;5027200;27;91755;-86
2023/10/19 04:35:22;;;;;;;2.20;1.30;;;22.30;56.50;;;;;;5030497;27;87997;-87
2023/10/19 04:37:52;;;;;;;1.58;1.35;;;22.40;56.50;;;;;;5028307;27;90653;-87
2023/10/19 04:40:25;;;;;;;1.48;1.30;;;22.30;56.60;;;;;;5027580;27;88273;-87
2023/10/19 04:42:52;;;;;;;1.65;1.20;;;22.30;56.60;;;;;;5042647;27;89113;-86
2023/10/19 04:45:18;;;;;;;1.55;1.23;;;22.30;56.80;;;;;;5027578;27;89814;-86
2023/10/19 04:47:44;;;;;;;1.48;1.38;;;22.40;56.90;;;;;;5028331;27;89149;-86
2023/10/19 04:50:10;;;;;;;1.73;1.10;;;22.30;56.70;;;;;;5025572;27;87529;-85
2023/10/19 04:52:36;;;;;;;1.38;1.13;;;22.30;56.80;;;;;;5028558;27;88441;-86
2023/10/19 04:55:02;;;;;;;1.77;1.17;;;22.30;56.80;;;;;;5042868;27;90310;-86
2023/10/19 04:57:28;;;;;;;1.20;1.10;;;22.30;56.80;;;;;;5025708;27;89597;-87
2023/10/19 04:59:55;;;;;;;2.20;1.23;;;22.30;56.60;;;;;;5030010;27;87888;-86
2023/10/19 05:02:21;;;;;;;1.60;1.42;;;22.30;56.60;;;;;;5028804;27;86794;-86
2023/10/19 05:04:46;;;;;;;1.48;1.17;;;22.30;56.60;;;;;;5025563;27;90270;-86
2023/10/19 05:07:14;;;;;;;1.95;1.08;;;22.30;56.60;;;;;;5027181;27;91614;-86
2023/10/19 05:09:40;;;;;;;1.88;1.30;;;22.30;56.70;;;;;;5026000;27;88376;-85
2023/10/19 05:12:09;;;;;;;1.67;1.05;;;22.30;56.70;;;;;;5026190;27;87994;-87
2023/10/19 05:14:35;;;;;;;1.73;1.23;;;22.30;56.70;;;;;;5024543;27;89979;-86
2023/10/19 05:17:05;;;;;;;1.15;0.95;;;22.30;56.50;;;;;;5025155;27;89624;-87
2023/10/19 05:19:34;;;;;;;1.13;0.90;;;22.30;56.50;;;;;;5025685;27;88064;-86
2023/10/19 05:22:00;;;;;;;1.35;1.25;;;22.30;56.70;;;;;;5026827;27;87979;-86
2023/10/19 05:24:27;;;;;;;2.75;1.40;;;22.30;56.60;;;;;;5028756;27;88389;-88
2023/10/19 05:26:53;;;;;;;1.30;1.10;;;22.30;56.60;;;;;;5026621;27;93983;-87
2023/10/19 05:29:39;;;;;;;1.63;1.30;;;22.30;56.50;;;;;;5023950;27;87695;-85
2023/10/19 05:32:05;;;;;;;1.17;1.08;;;22.30;56.60;;;;;;5024674;27;87654;-84
2023/10/19 05:34:34;;;;;;;2.47;1.35;;;22.30;56.60;;;;;;5023378;27;90714;-84
2023/10/19 05:37:08;;;;;;;1.67;1.50;;;22.30;56.60;;;;;;5025887;27;91496;-84
2023/10/19 05:39:36;;;;;;;2.00;1.60;;;22.30;57.00;;;;;;5025408;27;87639;-87
2023/10/19 05:42:02;;;;;;;2.08;1.55;;;22.30;57.10;;;;;;5027146;27;89004;-86
2023/10/19 05:44:30;;;;;;;2.55;1.70;;;22.30;57.30;;;;;;5026628;27;89176;-84
2023/10/19 05:46:56;;;;;;;3.53;1.77;;;22.30;57.00;;;;;;5027383;27;88319;-85
2023/10/19 05:49:23;;;;;;;2.95;1.65;;;22.30;57.00;;;;;;5027893;27;87966;-86
2023/10/19 05:51:50;;;;;;;3.92;1.50;;;22.30;57.00;;;;;;5027677;27;86851;-85
2023/10/19 05:54:18;;;;;;;8.15;2.53;;;22.30;56.60;;;;;;5024841;27;91231;-86
2023/10/19 05:56:43;;;;;;;14.80;5.18;;;22.30;56.90;;;;;;5026721;27;87955;-85
2023/10/19 05:59:13;;;;;;;19.25;6.47;;;22.30;57.10;;;;;;5028310;27;88328;-85
2023/10/19 06:01:38;;;;;;;21.85;6.72;;;22.30;57.20;;;;;;5023239;27;87764;-84
2023/10/19 06:04:05;;;;;;;17.27;5.32;;;22.30;57.30;;;;;;5024993;27;90047;-85
2023/10/19 06:06:31;;;;;;;14.48;4.75;;;22.20;57.20;;;;;;5025968;27;89664;-85
2023/10/19 06:08:57;;;;;;;13.95;4.07;;;22.30;57.40;;;;;;5031872;27;87951;-85
2023/10/19 06:11:23;;;;;;;18.50;4.78;;;22.20;57.20;;;;;;5054769;27;88261;-86
2023/10/19 06:13:48;;;;;;;13.80;4.85;;;22.20;57.30;;;;;;5048940;27;88924;-86
2023/10/19 06:16:14;;;;;;;20.67;5.80;;;22.20;57.30;;;;;;5051344;27;88436;-86
2023/10/19 06:18:40;;;;;;;13.45;4.65;;;22.20;57.40;;;;;;5051118;27;86815;-86
2023/10/19 06:21:06;;;;;;;14.52;5.50;;;22.20;57.30;;;;;;5049911;27;90240;-87
2023/10/19 06:23:31;;;;;;;17.42;5.60;;;22.20;57.40;;;;;;5050782;27;89838;-86
2023/10/19 06:25:57;;;;;;;16.85;5.70;;;22.20;57.40;;;;;;5049435;27;91733;-87
2023/10/19 06:28:23;;;;;;;12.43;4.72;;;22.20;57.10;;;;;;5051638;27;87273;-87
2023/10/19 06:30:50;;;;;;;11.27;4.95;;;22.20;57.10;;;;;;5050600;27;87045;-87
2023/10/19 06:33:16;;;;;;;15.10;4.85;;;22.20;57.00;;;;;;5033785;27;89085;-86
2023/10/19 06:35:42;;;;;;;11.05;4.28;;;22.20;57.20;;;;;;5031449;27;94199;-86
2023/10/19 06:38:10;;;;;;;22.33;4.72;;;22.20;57.10;;;;;;5036652;27;87921;-89
2023/10/19 06:40:36;;;;;;;14.87;4.70;;;22.20;57.10;;;;;;5033077;28;88674;-87
2023/10/19 06:43:23;;;;;;;12.77;4.35;;;22.20;57.00;;;;;;5049687;27;90723;-88
2023/10/19 06:45:49;;;;;;;15.23;5.15;;;22.20;57.20;;;;;;5031547;27;89780;-87
2023/10/19 06:48:15;;;;;;;19.80;5.53;;;22.20;57.40;;;;;;5031850;27;88404;-84
2023/10/19 06:50:41;;;;;;;34.30;8.52;;;22.20;57.30;;;;;;5030678;27;87523;-86
2023/10/19 06:53:07;;;;;;;34.70;7.90;;;22.20;58.00;;;;;;5027346;28;92418;-86
2023/10/19 06:55:36;;;;;;;28.58;6.68;;;22.20;57.50;;;;;;5030555;27;88431;-87
2023/10/19 06:58:02;;;;;;;20.65;6.45;;;22.20;57.30;;;;;;5029898;27;87318;-87
2023/10/19 07:00:27;;;;;;;32.10;7.10;;;22.20;57.50;;;;;;5025927;27;90237;-87
2023/10/19 07:02:55;;;;;;;22.27;7.53;;;22.30;57.40;;;;;;5026381;27;91172;-87
2023/10/19 07:05:23;;;;;;;28.67;6.78;;;22.30;57.30;;;;;;5025794;27;88433;-88
2023/10/19 07:07:51;;;;;;;21.38;6.72;;;22.30;57.70;;;;;;5029067;27;87723;-88
2023/10/19 07:10:18;;;;;;;23.02;6.88;;;22.20;57.70;;;;;;5032020;27;87646;-87
2023/10/19 07:12:46;;;;;;;21.27;6.55;;;22.30;57.80;;;;;;5028192;27;92163;-87
2023/10/19 07:15:13;;;;;;;20.30;6.10;;;22.20;57.80;;;;;;5029456;27;90304;-88
2023/10/19 07:17:43;;;;;;;25.95;6.57;;;22.20;57.80;;;;;;5031522;27;87475;-88
2023/10/19 07:20:25;;;;;;;22.00;6.05;;;22.20;57.80;;;;;;5030417;27;87102;-88
2023/10/19 07:25:45;;;;;;;28.75;6.03;;;22.20;57.90;;;;;;5029742;27;87426;-87
2023/10/19 07:28:12;;;;;;;20.95;6.15;;;22.20;57.70;;;;;;5027928;27;87663;-88
2023/10/19 07:30:39;;;;;;;22.52;6.97;;;22.20;57.80;;;;;;5029211;27;89768;-87
2023/10/19 07:33:05;;;;;;;23.80;5.70;;;22.20;57.90;;;;;;5029027;27;89286;-88
2023/10/19 07:35:34;;;;;;;18.88;5.95;;;22.20;58.00;;;;;;5029160;27;89455;-88
2023/10/19 07:38:01;;;;;;;;;;;22.20;57.90;;;;;;5029028;27;89077;-88
2023/10/19 07:40:27;;;;;;;21.38;6.47;;;22.20;57.80;;;;;;5029418;27;88803;-88
2023/10/19 07:42:54;;;;;;;21.70;5.80;;;22.20;57.80;;;;;;5028390;27;90479;-87
2023/10/19 07:45:21;;;;;;;18.77;5.22;;;22.20;57.90;;;;;;5028610;27;89977;-88
2023/10/19 07:47:47;;;;;;;27.67;6.70;;;22.20;57.80;;;;;;5028646;27;88096;-88
2023/10/19 07:50:16;;;;;;;16.63;5.43;;;22.20;57.80;;;;;;5028580;27;87960;-89
2023/10/19 07:52:43;;;;;;;;;;;22.20;57.60;;;;;;5045930;27;89029;-88
2023/10/19 07:55:09;;;;;;;17.58;5.10;;;22.20;57.40;;;;;;5030872;27;89436;-88
2023/10/19 07:57:35;;;;;;;19.42;5.75;;;22.20;57.60;;;;;;5027417;27;87497;-86
2023/10/19 08:00:01;;;;;;;18.80;5.30;;;22.30;57.60;;;;;;5030213;27;87948;-89
2023/10/19 08:02:28;;;;;;;17.65;5.57;;;22.20;57.60;;;;;;5028564;27;89741;-88
2023/10/19 08:04:54;;;;;;;18.48;5.30;;;22.30;57.60;;;;;;5030590;27;88479;-86
2023/10/19 08:07:20;;;;;;;19.02;5.43;;;22.20;57.50;;;;;;5029817;27;87800;-88
2023/10/19 08:09:45;;;;;;;17.02;5.00;;;22.30;57.50;;;;;;5027681;27;88810;-88
2023/10/19 08:12:13;;;;;;;18.42;5.70;;;22.30;57.40;;;;;;5029043;27;90193;-88
2023/10/19 08:14:39;;;;;;;18.55;5.30;;;22.30;57.50;;;;;;5029116;27;88426;-88
2023/10/19 08:17:08;;;;;;;14.90;4.72;;;22.30;57.40;;;;;;5025233;27;87393;-88
2023/10/19 08:19:37;;;;;;;13.65;5.20;;;22.30;57.40;;;;;;5027563;27;87905;-89
2023/10/19 08:22:04;;;;;;;13.82;4.63;;;22.30;57.40;;;;;;5028608;27;88225;-88
2023/10/19 08:24:34;;;;;;;15.73;4.63;;;22.30;57.30;;;;;;5029109;27;88165;-87
2023/10/19 08:27:01;;;;;;;20.40;5.63;;;22.30;57.30;;;;;;5026491;27;88879;-88
2023/10/19 08:29:26;;;;;;;13.38;5.13;;;22.30;57.50;;;;;;5043240;27;88333;-87
2023/10/19 08:31:52;;;;;;;16.73;4.93;;;22.30;57.40;;;;;;5027101;27;91084;-88
2023/10/19 08:34:20;;;;;;;17.38;4.93;;;22.30;57.50;;;;;;5026327;27;89615;-88
2023/10/19 08:36:46;;;;;;;15.55;5.25;;;22.30;57.60;;;;;;5028276;27;88156;-88
2023/10/19 08:39:12;;;;;;;17.90;5.53;;;22.30;57.40;;;;;;5030822;27;87836;-88
2023/10/19 08:41:40;;;;;;;12.38;4.32;;;22.30;57.30;;;;;;5026706;27;88614;-89
2023/10/19 08:44:10;;;;;;;15.13;5.45;;;22.30;57.40;;;;;;5027243;27;90543;-88
2023/10/19 08:46:47;;;;;;;13.70;4.65;;;22.30;57.30;;;;;;5025448;27;87941;-89
2023/10/19 08:49:14;;;;;;;12.93;4.30;;;22.30;57.20;;;;;;5024050;27;87795;-89
2023/10/19 08:51:46;;;;;;;10.98;4.85;;;22.30;57.30;;;;;;5042008;27;91803;-86
2023/10/19 08:54:14;;;;;;;11.88;4.50;;;22.30;57.20;;;;;;5026061;27;90349;-88
2023/10/19 08:56:41;;;;;;;14.32;4.60;;;22.30;57.10;;;;;;5029237;27;87967;-88
2023/10/19 08:59:08;;;;;;;14.48;4.35;;;22.40;57.70;;;;;;5028439;27;87834;-88
2023/10/19 09:01:35;;;;;;;13.40;3.83;;;22.30;57.10;;;;;;5029171;27;89040;-89
2023/10/19 09:04:01;;;;;;;12.73;4.72;;;22.30;57.10;;;;;;5028503;27;88401;-87
2023/10/19 09:06:28;;;;;;;15.45;4.70;;;22.30;57.10;;;;;;5028509;27;87570;-88
2023/10/19 09:08:57;;;;;;;13.30;5.05;;;22.30;57.20;;;;;;5028963;27;93437;-89
2023/10/19 09:11:24;;;;;;;11.10;4.00;;;22.30;57.40;;;;;;5028805;27;89085;-89
2023/10/19 09:13:52;;;;;;;16.90;5.05;;;22.30;57.70;;;;;;5028147;27;87955;-87
2023/10/19 09:16:20;;;;;;;21.63;4.53;;;22.30;57.40;;;;;;5025503;27;88435;-87
2023/10/19 09:18:51;;;;;;;13.98;4.80;;;22.30;57.30;;;;;;5028155;27;87636;-88
2023/10/19 09:21:25;;;;;;;14.52;4.43;;;22.30;57.40;;;;;;5027313;27;87826;-88
2023/10/19 09:23:55;;;;;;;11.90;4.65;;;22.30;57.50;;;;;;5026775;27;88914;-88
2023/10/19 09:26:22;;;;;;;16.55;4.50;;;22.30;57.70;;;;;;5022199;27;88143;-86
2023/10/19 09:28:49;;;;;;;12.02;4.25;;;22.30;57.60;;;;;;5026039;27;87661;-88
2023/10/19 09:31:16;;;;;;;16.08;4.35;;;22.30;57.50;;;;;;5027470;27;91129;-86
2023/10/19 09:33:47;;;;;;;10.57;4.03;;;22.30;57.60;;;;;;5026726;27;88347;-88
2023/10/19 09:36:13;;;;;;;11.63;3.83;;;22.30;57.80;;;;;;5043015;27;87961;-88
2023/10/19 09:38:43;;;;;;;11.38;4.53;;;22.30;57.70;;;;;;5026412;27;88961;-86
2023/10/19 09:41:21;;;;;;;15.07;4.85;;;22.30;57.70;;;;;;5027086;27;89707;-87
2023/10/19 09:43:49;;;;;;;9.88;4.03;;;22.40;57.90;;;;;;5022500;27;90282;-87
2023/10/19 09:46:29;;;;;;;21.25;5.47;;;22.30;57.90;;;;;;5042140;27;87909;-88
2023/10/19 09:48:55;;;;;;;11.73;4.57;;;22.30;57.90;;;;;;5026485;27;88726;-88
2023/10/19 09:51:22;;;;;;;9.95;3.42;;;22.40;58.10;;;;;;5026486;27;91117;-90
2023/10/19 09:54:10;;;;;;;13.43;4.43;;;22.30;57.80;;;;;;5047379;27;89313;-88
2023/10/19 09:56:41;;;;;;;16.63;5.00;;;22.30;57.90;;;;;;5027480;28;88444;-88
2023/10/19 09:59:18;;;;;;;13.57;4.70;;;22.30;58.20;;;;;;5025185;27;90324;-90
2023/10/19 10:02:12;;;;;;;13.93;4.35;;;22.40;58.20;;;;;;5026097;28;89251;-88
2023/10/19 10:04:40;;;;;;;17.45;5.45;;;22.30;58.60;;;;;;5028056;27;90650;-88
2023/10/19 10:07:07;;;;;;;16.33;5.43;;;22.40;59.40;;;;;;5026762;27;88866;-88
2023/10/19 10:09:39;;;;;;;18.27;5.40;;;22.40;59.40;;;;;;5029140;27;89238;-91
2023/10/19 10:12:28;;;;;;;16.67;5.50;;;22.40;59.40;;;;;;5012971;27;89290;-88
2023/10/19 10:15:01;;;;;;;16.93;5.17;;;22.40;58.90;;;;;;4996790;28;92138;-89
2023/10/19 10:17:27;;;;;;;11.43;4.40;;;22.50;59.20;;;;;;5026929;27;88289;-91
2023/10/19 10:20:10;;;;;;;14.35;4.70;;;22.50;59.10;;;;;;5026557;27;88201;-88
2023/10/19 10:22:35;;;;;;;13.65;5.53;;;22.50;58.90;;;;;;5027549;27;90103;-88
2023/10/19 10:25:01;;;;;;;12.40;4.60;;;22.50;59.20;;;;;;5027516;27;88293;-89
2023/10/19 10:27:27;;;;;;;12.00;5.03;;;22.50;59.10;;;;;;5026403;27;87688;-88
2023/10/19 10:29:56;;;;;;;15.25;5.55;;;22.50;59.30;;;;;;5020059;27;88556;-89
2023/10/19 10:32:44;;;;;;;10.32;4.88;;;22.50;59.60;;;;;;5026850;27;90509;-89
2023/10/19 10:35:19;;;;;;;14.65;5.05;;;22.60;59.30;;;;;;5042819;27;91013;-88
2023/10/19 10:37:56;;;;;;;10.10;5.40;;;22.60;59.40;;;;;;5024994;27;88239;-88
2023/10/19 10:40:22;;;;;;;13.25;5.85;;;22.60;59.50;;;;;;5027301;27;87772;-90
2023/10/19 10:42:48;;;;;;;14.43;5.10;;;22.60;59.60;;;;;;5026894;27;89767;-91
2023/10/19 10:45:21;;;;;;;16.42;5.63;;;22.60;60.00;;;;;;5027475;27;91157;-89
2023/10/19 10:47:47;;;;;;;17.13;5.18;;;22.60;59.90;;;;;;5026591;27;87716;-87
2023/10/19 10:50:19;;;;;;;10.57;5.10;;;22.60;59.10;;;;;;5026384;27;87718;-88
2023/10/19 10:52:45;;;;;;;13.80;5.55;;;22.60;59.90;;;;;;5023967;27;89413;-88
2023/10/19 10:55:14;;;;;;;15.98;4.90;;;22.60;60.00;;;;;;5026924;27;87692;-89
2023/10/19 10:57:41;;;;;;;14.20;5.05;;;22.60;60.40;;;;;;5025892;27;88304;-88
2023/10/19 11:00:15;;;;;;;16.90;4.85;;;22.60;60.40;;;;;;5028142;27;89454;-90
2023/10/19 11:02:49;;;;;;;14.75;5.28;;;22.60;59.30;;;;;;5022359;27;89506;-88
2023/10/19 11:05:16;;;;;;;13.20;4.85;;;22.60;60.00;;;;;;5022248;27;88786;-90
2023/10/19 11:08:16;;;;;;;12.00;5.00;;;22.60;60.00;;;;;;5025853;27;87602;-89
2023/10/19 11:10:46;;;;;;;13.93;5.15;;;22.60;60.10;;;;;;5016689;27;87243;-88
2023/10/19 11:13:17;;;;;;;13.00;5.60;;;22.60;60.10;;;;;;5026382;27;89575;-89
2023/10/19 11:15:52;;;;;;;12.95;4.95;;;22.60;60.80;;;;;;5026770;27;88964;-91
2023/10/19 11:18:37;;;;;;;20.23;5.30;;;22.60;60.80;;;;;;5028495;27;88068;-89
2023/10/19 11:21:07;;;;;;;12.73;5.43;;;22.60;60.30;;;;;;5027793;27;92634;-90
2023/10/19 11:23:47;;;;;;;11.85;5.35;;;22.60;61.10;;;;;;5024447;27;89891;-88
2023/10/19 11:26:21;;;;;;;13.55;5.50;;;22.60;61.00;;;;;;5026663;27;90556;-88
2023/10/19 11:28:56;;;;;;;14.18;5.45;;;22.70;60.00;;;;;;5027676;27;87715;-88
2023/10/19 11:31:27;;;;;;;9.85;5.05;;;22.70;60.40;;;;;;5031481;27;87747;-90
2023/10/19 11:34:00;;;;;;;10.60;4.32;;;22.70;60.40;;;;;;5027238;28;88790;-90
2023/10/19 11:36:26;;;;;;;14.55;4.55;;;22.70;60.60;;;;;;5027637;27;87770;-90
2023/10/19 11:38:53;;;;;;;11.63;4.63;;;22.70;60.90;;;;;;5026823;27;87813;-89
2023/10/19 11:41:19;;;;;;;14.32;5.50;;;22.70;60.70;;;;;;5028470;27;86571;-90
2023/10/19 11:43:46;;;;;;;11.98;4.93;;;22.70;60.50;;;;;;5026886;27;87963;-89
2023/10/19 11:46:14;;;;;;;14.57;5.95;;;22.70;60.50;;;;;;5025462;27;90365;-91
2023/10/19 11:48:42;;;;;;;17.90;6.28;;;22.70;60.80;;;;;;5026403;27;88774;-89
2023/10/19 11:51:10;;;;;;;14.15;5.72;;;22.70;61.30;;;;;;5028497;27;89018;-90
2023/10/19 11:53:37;;;;;;;15.02;5.35;;;22.70;61.10;;;;;;5029154;27;89090;-92
2023/10/19 11:56:05;;;;;;;9.63;4.32;;;22.70;60.70;;;;;;5030845;27;89039;-88
2023/10/19 11:58:39;;;;;;;9.95;4.60;;;22.70;61.40;;;;;;5033696;27;87949;-89
2023/10/19 12:01:12;;;;;;;16.80;4.90;;;22.70;61.40;;;;;;5032764;27;88732;-92
2023/10/19 12:03:41;;;;;;;13.32;4.28;;;22.70;61.20;;;;;;5032376;27;88903;-89
2023/10/19 12:06:08;;;;;;;12.88;5.05;;;22.70;61.40;;;;;;5026771;27;89659;-90
2023/10/19 12:08:35;;;;;;;13.50;4.68;;;22.70;61.40;;;;;;5031683;27;87697;-90
2023/10/19 12:11:02;;;;;;;13.20;4.40;;;22.70;61.50;;;;;;5031283;27;87730;-88
2023/10/19 12:13:28;;;;;;;11.27;4.30;;;22.70;61.80;;;;;;5021269;27;91221;-90
2023/10/19 12:15:57;;;;;;;9.52;4.00;;;22.60;61.60;;;;;;5030107;28;91026;-89
2023/10/19 12:18:26;;;;;;;11.50;4.20;;;22.70;61.60;;;;;;5033206;27;88427;-91
2023/10/19 12:20:56;;;;;;;11.20;4.05;;;22.70;61.60;;;;;;5029340;27;88088;-89
2023/10/19 12:23:25;;;;;;;8.05;3.92;;;22.70;61.90;;;;;;5030745;27;91886;-90
2023/10/19 12:25:51;;;;;;;9.63;3.38;;;22.70;61.90;;;;;;5031051;27;88451;-90
2023/10/19 12:28:17;;;;;;;10.25;4.15;;;22.70;62.00;;;;;;5032947;27;87362;-90
2023/10/19 12:30:43;;;;;;;12.40;4.78;;;22.70;60.80;;;;;;5030621;27;90869;-90
2023/10/19 12:33:12;;;;;;;14.68;4.47;;;22.70;62.10;;;;;;5032162;27;87500;-89
2023/10/19 12:35:45;;;;;;;17.58;5.45;;;22.70;61.40;;;;;;5028260;27;89579;-89
2023/10/19 12:38:27;;;;;;;12.27;4.97;;;22.70;62.30;;;;;;5029410;27;88527;-88
2023/10/19 12:40:56;;;;;;;19.10;5.07;;;22.70;62.30;;;;;;5030222;27;89638;-88
2023/10/19 12:43:30;;;;;;;11.13;4.83;;;22.70;62.20;;;;;;5027216;27;90444;-89
2023/10/19 12:45:57;;;;;;;17.30;5.25;;;22.80;62.00;;;;;;5030933;27;90680;-89
2023/10/19 12:48:30;;;;;;;13.48;4.55;;;22.80;62.00;;;;;;5031683;27;87629;-92
2023/10/19 12:50:55;;;;;;;7.28;3.28;;;22.80;62.10;;;;;;5032012;27;91879;-88
2023/10/19 12:53:24;;;;;;;18.30;5.20;;;22.80;61.60;;;;;;5032079;27;89911;-90
2023/10/19 12:55:50;;;;;;;11.77;4.60;;;22.80;62.20;;;;;;5029460;27;90995;-89
2023/10/19 12:58:19;;;;;;;11.32;4.05;;;22.80;62.30;;;;;;5031918;27;87883;-89
2023/10/19 13:00:45;;;;;;;9.77;4.10;;;22.80;62.50;;;;;;5031642;27;87632;-88
2023/10/19 13:03:16;;;;;;;9.90;3.45;;;22.80;62.30;;;;;;5034315;27;91597;-89
2023/10/19 13:05:44;;;;;;;27.65;7.22;;;22.80;62.50;;;;;;5031070;27;90287;-91
2023/10/19 13:08:13;;;;;;;23.50;7.28;;;22.80;62.60;;;;;;5032188;27;87899;-90
2023/10/19 13:10:43;;;;;;;19.55;6.72;;;22.80;62.70;;;;;;5029870;27;87480;-89
2023/10/19 13:13:14;;;;;;;18.92;6.50;;;22.80;62.90;;;;;;5029940;27;88259;-90
2023/10/19 13:15:41;;;;;;;17.48;4.88;;;22.80;62.40;;;;;;5027737;27;89821;-89
2023/10/19 13:18:13;;;;;;;18.05;6.25;;;22.80;62.60;;;;;;5034608;27;87061;-91